LEAL/ALC METAR and TAF weather

Enter ICAO airport designator
Station Type Date Time Source
LEAL METAR 2022/11/30 16:30 UTC NOAA

LEAL 301630Z 19003KT 160V220 9999 FEW045 15/09 Q1015 NOSIG


Station Type Date Time Source
LEAL Decoded METAR 2022/11/30 16:30 UTC NOAA

Alicante / El Altet, Spain (LEAL) 38-17N 000-33W 31M
Nov 30, 2022 - 11:30 AM EST / 2022.11.30 1630 UTC
Wind: from the S (190 degrees) at 3 MPH (3 KT) (direction variable):0
Visibility: greater than 7 mile(s):0
Sky conditions: mostly clear
Temperature: 59 F (15 C)
Dew Point: 48 F (9 C)
Relative Humidity: 67%
Pressure (altimeter): 29.97 in. Hg (1015 hPa)
ob: LEAL 301630Z 19003KT 160V220 9999 FEW045 15/09 Q1015 NOSIG
cycle: 16

Station Type Date Time Source
LEAL TAF 2022/11/30 12:27 UTC NOAA

TAF TAF LEAL 301100Z 3012/0112 02005KT 9999 SCT030 TX18/3012Z TN11/0106Z PROB30
TEMPO 3012/3018 10010KT PROB30
TEMPO 0106/0112 3000 RA

Example: see airport list